Aviation Digital Data Service (ADDS)

Output produced by METARs form (1623 UTC 23 January 2019)
found at http://www.aviationweather.gov/metar/data/
 
METAR text: PASI 231553Z 13007KT 10SM OVC026 05/03 A3023 RMK AO2 SLP235 T00500028 $
Conditions at: PASI (SITKA , AK, US) observed 1553 UTC 23 January 2019
Temperature: 5.0°C (41°F)
Dewpoint: 2.8°C (37°F) [RH = 86%]
Pressure (altimeter): 30.23 inches Hg (1023.8 mb)
[Sea-level pressure: 1023.5 mb]
Winds: from the SE (130 degrees) at 8 MPH (7 knots; 3.6 m/s)
Visibility: 10 or more miles (16+ km)
Ceiling: 2600 feet AGL
Clouds: overcast cloud deck at 2600 feet AGL
Weather:
SOME DATA ABOVE MAY BE INACCURATE!!!
"$" is an indication the sensor requires maintenance

METAR text: PASI 231453Z 13004KT 10SM SCT022 OVC027 04/02 A3021 RMK AO2 SLP229 T00390022 51009 $
Conditions at: PASI (SITKA , AK, US) observed 1453 UTC 23 January 2019
Temperature: 3.9°C (39°F)
Dewpoint: 2.2°C (36°F) [RH = 89%]
Pressure (altimeter): 30.21 inches Hg (1023.1 mb)
[Sea-level pressure: 1022.9 mb]
Winds: from the SE (130 degrees) at 5 MPH (4 knots; 2.1 m/s)
Visibility: 10 or more miles (16+ km)
Ceiling: 2700 feet AGL
Clouds: scattered clouds at 2200 feet AGL
overcast cloud deck at 2700 feet AGL
Weather:
SOME DATA ABOVE MAY BE INACCURATE!!!
"$" is an indication the sensor requires maintenance

METAR text: PASI 231353Z 11004KT 10SM FEW018 BKN025 OVC034 03/02 A3019 RMK AO2 SLP224 T00330022 $
Conditions at: PASI (SITKA , AK, US) observed 1353 UTC 23 January 2019
Temperature: 3.3°C (38°F)
Dewpoint: 2.2°C (36°F) [RH = 92%]
Pressure (altimeter): 30.19 inches Hg (1022.4 mb)
[Sea-level pressure: 1022.4 mb]
Winds: from the ESE (110 degrees) at 5 MPH (4 knots; 2.1 m/s)
Visibility: 10 or more miles (16+ km)
Ceiling: 2500 feet AGL
Clouds: few clouds at 1800 feet AGL
broken clouds at 2500 feet AGL
overcast cloud deck at 3400 feet AGL
Weather:
SOME DATA ABOVE MAY BE INACCURATE!!!
"$" is an indication the sensor requires maintenance

METAR text: PASI 231348Z 10005KT 10SM SCT018 BKN025 OVC034 03/02 A3019 RMK AO2 $
Conditions at: PASI (SITKA , AK, US) observed 1348 UTC 23 January 2019
Temperature: 3.0°C (37°F)
Dewpoint: 2.0°C (36°F) [RH = 93%]
Pressure (altimeter): 30.19 inches Hg (1022.4 mb)
Winds: from the E (100 degrees) at 6 MPH (5 knots; 2.6 m/s)
Visibility: 10 or more miles (16+ km)
Ceiling: 2500 feet AGL
Clouds: scattered clouds at 1800 feet AGL
broken clouds at 2500 feet AGL
overcast cloud deck at 3400 feet AGL
Weather:
SOME DATA ABOVE MAY BE INACCURATE!!!
"$" is an indication the sensor requires maintenance

METAR text: PASI 231301Z 11003KT 10SM SCT015 OVC035 02/01 A3018 RMK AO2 T00220011 $
Conditions at: PASI (SITKA , AK, US) observed 1301 UTC 23 January 2019
Temperature: 2.2°C (36°F)
Dewpoint: 1.1°C (34°F) [RH = 92%]
Pressure (altimeter): 30.18 inches Hg (1022.1 mb)
Winds: from the ESE (110 degrees) at 3 MPH (3 knots; 1.5 m/s)
Visibility: 10 or more miles (16+ km)
Ceiling: 3500 feet AGL
Clouds: scattered clouds at 1500 feet AGL
overcast cloud deck at 3500 feet AGL
Weather:
SOME DATA ABOVE MAY BE INACCURATE!!!
"$" is an indication the sensor requires maintenance

METAR text: PASI 231253Z 11004KT 10SM BKN015 OVC035 02/01 A3018 RMK AO2 SLP219 T00170011 $
Conditions at: PASI (SITKA , AK, US) observed 1253 UTC 23 January 2019
Temperature: 1.7°C (35°F)
Dewpoint: 1.1°C (34°F) [RH = 96%]
Pressure (altimeter): 30.18 inches Hg (1022.1 mb)
[Sea-level pressure: 1021.9 mb]
Winds: from the ESE (110 degrees) at 5 MPH (4 knots; 2.1 m/s)
Visibility: 10 or more miles (16+ km)
Ceiling: 1500 feet AGL
Clouds: broken clouds at 1500 feet AGL
overcast cloud deck at 3500 feet AGL
Weather:
SOME DATA ABOVE MAY BE INACCURATE!!!
"$" is an indication the sensor requires maintenance

METAR text: PASI 231230Z 00000KT 10SM BKN012 01/01 A3018 RMK AO2 T00110006 $
Conditions at: PASI (SITKA , AK, US) observed 1230 UTC 23 January 2019
Temperature: 1.1°C (34°F)
Dewpoint: 0.6°C (33°F) [RH = 96%]
Pressure (altimeter): 30.18 inches Hg (1022.1 mb)
Winds: calm
Visibility: 10 or more miles (16+ km)
Ceiling: 1200 feet AGL
Clouds: broken clouds at 1200 feet AGL
Weather:
SOME DATA ABOVE MAY BE INACCURATE!!!
"$" is an indication the sensor requires maintenance

METAR text: PASI 231153Z 00000KT 10SM CLR 02/02 A3016 RMK AO2 SLP212 T00220017 10039 20017 53019 $
Conditions at: PASI (SITKA , AK, US) observed 1153 UTC 23 January 2019
Temperature: 2.2°C (36°F)
Dewpoint: 1.7°C (35°F) [RH = 96%]
Pressure (altimeter): 30.16 inches Hg (1021.4 mb)
[Sea-level pressure: 1021.2 mb]
Winds: calm
Visibility: 10 or more miles (16+ km)
Ceiling: at least 12,000 feet AGL
Clouds: sky clear below 12,000 feet AGL
Weather:
SOME DATA ABOVE MAY BE INACCURATE!!!
"$" is an indication the sensor requires maintenance

METAR text: PASI 231053Z 00000KT 10SM CLR 02/01 A3013 RMK AO2 SLP204 T00220011 $
Conditions at: PASI (SITKA , AK, US) observed 1053 UTC 23 January 2019
Temperature: 2.2°C (36°F)
Dewpoint: 1.1°C (34°F) [RH = 92%]
Pressure (altimeter): 30.13 inches Hg (1020.4 mb)
[Sea-level pressure: 1020.4 mb]
Winds: calm
Visibility: 10 or more miles (16+ km)
Ceiling: at least 12,000 feet AGL
Clouds: sky clear below 12,000 feet AGL
Weather:
SOME DATA ABOVE MAY BE INACCURATE!!!
"$" is an indication the sensor requires maintenance

METAR text: PASI 230953Z 00000KT 10SM CLR 03/01 A3011 RMK AO2 SLP197 T00280011 $
Conditions at: PASI (SITKA , AK, US) observed 0953 UTC 23 January 2019
Temperature: 2.8°C (37°F)
Dewpoint: 1.1°C (34°F) [RH = 89%]
Pressure (altimeter): 30.11 inches Hg (1019.7 mb)
[Sea-level pressure: 1019.7 mb]
Winds: calm
Visibility: 10 or more miles (16+ km)
Ceiling: at least 12,000 feet AGL
Clouds: sky clear below 12,000 feet AGL
Weather:
SOME DATA ABOVE MAY BE INACCURATE!!!
"$" is an indication the sensor requires maintenance

METAR text: PASI 230853Z 09004KT 10SM SCT033 03/02 A3010 RMK AO2 SLP193 T00280017 400780022 $
Conditions at: PASI (SITKA , AK, US) observed 0853 UTC 23 January 2019
Temperature: 2.8°C (37°F)
Dewpoint: 1.7°C (35°F) [RH = 92%]
Pressure (altimeter): 30.10 inches Hg (1019.4 mb)
[Sea-level pressure: 1019.3 mb]
Winds: from the E (90 degrees) at 5 MPH (4 knots; 2.1 m/s)
Visibility: 10 or more miles (16+ km)
Ceiling: at least 12,000 feet AGL
Clouds: scattered clouds at 3300 feet AGL
Weather:
SOME DATA ABOVE MAY BE INACCURATE!!!
"$" is an indication the sensor requires maintenance

METAR text: PASI 230753Z 11003KT 10SM BKN038 03/02 A3009 RMK AO2 SLP189 T00280017 $
Conditions at: PASI (SITKA , AK, US) observed 0753 UTC 23 January 2019
Temperature: 2.8°C (37°F)
Dewpoint: 1.7°C (35°F) [RH = 92%]
Pressure (altimeter): 30.09 inches Hg (1019.0 mb)
[Sea-level pressure: 1018.9 mb]
Winds: from the ESE (110 degrees) at 3 MPH (3 knots; 1.5 m/s)
Visibility: 10 or more miles (16+ km)
Ceiling: 3800 feet AGL
Clouds: broken clouds at 3800 feet AGL
Weather:
SOME DATA ABOVE MAY BE INACCURATE!!!
"$" is an indication the sensor requires maintenance

METAR text: PASI 230654Z 00000KT 10SM SCT040 03/02 A3006 RMK AO2 SLP180 T00280017 $
Conditions at: PASI (SITKA , AK, US) observed 0654 UTC 23 January 2019
Temperature: 2.8°C (37°F)
Dewpoint: 1.7°C (35°F) [RH = 92%]
Pressure (altimeter): 30.06 inches Hg (1018.0 mb)
[Sea-level pressure: 1018.0 mb]
Winds: calm
Visibility: 10 or more miles (16+ km)
Ceiling: at least 12,000 feet AGL
Clouds: scattered clouds at 4000 feet AGL
Weather:
SOME DATA ABOVE MAY BE INACCURATE!!!
"$" is an indication the sensor requires maintenance

METAR text: PASI 230553Z 10004KT 10SM SCT060 03/02 A3002 RMK AO2 SLP166 60000 T00330017 10072 20028 53027
Conditions at: PASI (SITKA , AK, US) observed 0553 UTC 23 January 2019
Temperature: 3.3°C (38°F)
Dewpoint: 1.7°C (35°F) [RH = 89%]
Pressure (altimeter): 30.02 inches Hg (1016.7 mb)
[Sea-level pressure: 1016.6 mb]
Winds: from the E (100 degrees) at 5 MPH (4 knots; 2.1 m/s)
Visibility: 10 or more miles (16+ km)
Ceiling: at least 12,000 feet AGL
Clouds: scattered clouds at 6000 feet AGL
Weather: no significant weather observed at this time

METAR text: PASI 230453Z 00000KT 10SM BKN040 04/02 A3000 RMK AO2 RAB24E33 SLP158 P0000 T00390022
Conditions at: PASI (SITKA , AK, US) observed 0453 UTC 23 January 2019
Temperature: 3.9°C (39°F)
Dewpoint: 2.2°C (36°F) [RH = 89%]
Pressure (altimeter): 30.00 inches Hg (1016.0 mb)
[Sea-level pressure: 1015.8 mb]
Winds: calm
Visibility: 10 or more miles (16+ km)
Ceiling: 4000 feet AGL
Clouds: broken clouds at 4000 feet AGL
Weather: no significant weather observed at this time

METAR text: PASI 230353Z 00000KT 10SM SCT060 04/02 A2996 RMK AO2 SLP146 T00440022
Conditions at: PASI (SITKA , AK, US) observed 0353 UTC 23 January 2019
Temperature: 4.4°C (40°F)
Dewpoint: 2.2°C (36°F) [RH = 86%]
Pressure (altimeter): 29.96 inches Hg (1014.6 mb)
[Sea-level pressure: 1014.6 mb]
Winds: calm
Visibility: 10 or more miles (16+ km)
Ceiling: at least 12,000 feet AGL
Clouds: scattered clouds at 6000 feet AGL
Weather: no significant weather observed at this time

METAR text: PASI 230253Z 09004KT 10SM OVC060 05/02 A2994 RMK AO2 SLP139 T00500022 53020
Conditions at: PASI (SITKA , AK, US) observed 0253 UTC 23 January 2019
Temperature: 5.0°C (41°F)
Dewpoint: 2.2°C (36°F) [RH = 82%]
Pressure (altimeter): 29.94 inches Hg (1014.0 mb)
[Sea-level pressure: 1013.9 mb]
Winds: from the E (90 degrees) at 5 MPH (4 knots; 2.1 m/s)
Visibility: 10 or more miles (16+ km)
Ceiling: 6000 feet AGL
Clouds: overcast cloud deck at 6000 feet AGL
Weather: no significant weather observed at this time

METAR text: PASI 230153Z 00000KT 10SM FEW042 BKN060 05/03 A2993 RMK AO2 SLP134 T00500028
Conditions at: PASI (SITKA , AK, US) observed 0153 UTC 23 January 2019
Temperature: 5.0°C (41°F)
Dewpoint: 2.8°C (37°F) [RH = 86%]
Pressure (altimeter): 29.93 inches Hg (1013.6 mb)
[Sea-level pressure: 1013.4 mb]
Winds: calm
Visibility: 10 or more miles (16+ km)
Ceiling: 6000 feet AGL
Clouds: few clouds at 4200 feet AGL
broken clouds at 6000 feet AGL
Weather: no significant weather observed at this time

METAR text: PASI 230053Z 00000KT 10SM BKN060 06/02 A2990 RMK AO2 SLP125 T00560022
Conditions at: PASI (SITKA , AK, US) observed 0053 UTC 23 January 2019
Temperature: 5.6°C (42°F)
Dewpoint: 2.2°C (36°F) [RH = 79%]
Pressure (altimeter): 29.90 inches Hg (1012.6 mb)
[Sea-level pressure: 1012.5 mb]
Winds: calm
Visibility: 10 or more miles (16+ km)
Ceiling: 6000 feet AGL
Clouds: broken clouds at 6000 feet AGL
Weather: no significant weather observed at this time

METAR text: PASI 222353Z 00000KT 10SM BKN044 07/03 A2988 RMK AO2 SLP119 T00720028 10072 20033 51022
Conditions at: PASI (SITKA , AK, US) observed 2353 UTC 22 January 2019
Temperature: 7.2°C (45°F)
Dewpoint: 2.8°C (37°F) [RH = 74%]
Pressure (altimeter): 29.88 inches Hg (1011.9 mb)
[Sea-level pressure: 1011.9 mb]
Winds: calm
Visibility: 10 or more miles (16+ km)
Ceiling: 4400 feet AGL
Clouds: broken clouds at 4400 feet AGL
Weather: no significant weather observed at this time

METAR text: PASI 222253Z 17003KT 10SM BKN047 07/03 A2987 RMK AO2 SLP113 T00720028
Conditions at: PASI (SITKA , AK, US) observed 2253 UTC 22 January 2019
Temperature: 7.2°C (45°F)
Dewpoint: 2.8°C (37°F) [RH = 74%]
Pressure (altimeter): 29.87 inches Hg (1011.6 mb)
[Sea-level pressure: 1011.3 mb]
Winds: from the S (170 degrees) at 3 MPH (3 knots; 1.5 m/s)
Visibility: 10 or more miles (16+ km)
Ceiling: 4700 feet AGL
Clouds: broken clouds at 4700 feet AGL
Weather: no significant weather observed at this time

METAR text: PASI 222153Z 36006KT 10SM BKN047 07/02 A2985 RMK AO2 SLP109 T00670022
Conditions at: PASI (SITKA , AK, US) observed 2153 UTC 22 January 2019
Temperature: 6.7°C (44°F)
Dewpoint: 2.2°C (36°F) [RH = 73%]
Pressure (altimeter): 29.85 inches Hg (1010.9 mb)
[Sea-level pressure: 1010.9 mb]
Winds: from the N (360 degrees) at 7 MPH (6 knots; 3.1 m/s)
Visibility: 10 or more miles (16+ km)
Ceiling: 4700 feet AGL
Clouds: broken clouds at 4700 feet AGL
Weather: no significant weather observed at this time

METAR text: PASI 222053Z 33006KT 10SM BKN065 06/03 A2982 RMK AO2 SLP098 T00610033 53028
Conditions at: PASI (SITKA , AK, US) observed 2053 UTC 22 January 2019
Temperature: 6.1°C (43°F)
Dewpoint: 3.3°C (38°F) [RH = 82%]
Pressure (altimeter): 29.82 inches Hg (1009.9 mb)
[Sea-level pressure: 1009.8 mb]
Winds: from the NNW (330 degrees) at 7 MPH (6 knots; 3.1 m/s)
Visibility: 10 or more miles (16+ km)
Ceiling: 6500 feet AGL
Clouds: broken clouds at 6500 feet AGL
Weather: no significant weather observed at this time

METAR text: PASI 221953Z 31004KT 10SM SCT055 06/02 A2979 RMK AO2 SLP087 T00560022
Conditions at: PASI (SITKA , AK, US) observed 1953 UTC 22 January 2019
Temperature: 5.6°C (42°F)
Dewpoint: 2.2°C (36°F) [RH = 79%]
Pressure (altimeter): 29.79 inches Hg (1008.9 mb)
[Sea-level pressure: 1008.7 mb]
Winds: from the NW (310 degrees) at 5 MPH (4 knots; 2.1 m/s)
Visibility: 10 or more miles (16+ km)
Ceiling: at least 12,000 feet AGL
Clouds: scattered clouds at 5500 feet AGL
Weather: no significant weather observed at this time

METAR text: PASI 221853Z 33004KT 10SM SCT055 05/01 A2977 RMK AO2 SLP079 T00500011
Conditions at: PASI (SITKA , AK, US) observed 1853 UTC 22 January 2019
Temperature: 5.0°C (41°F)
Dewpoint: 1.1°C (34°F) [RH = 76%]
Pressure (altimeter): 29.77 inches Hg (1008.2 mb)
[Sea-level pressure: 1007.9 mb]
Winds: from the NNW (330 degrees) at 5 MPH (4 knots; 2.1 m/s)
Visibility: 10 or more miles (16+ km)
Ceiling: at least 12,000 feet AGL
Clouds: scattered clouds at 5500 feet AGL
Weather: no significant weather observed at this time

METAR text: PASI 221753Z 00000KT 10SM FEW150 04/01 A2974 RMK AO2 SLP070 T00390011 10067 20039 53024 $
Conditions at: PASI (SITKA , AK, US) observed 1753 UTC 22 January 2019
Temperature: 3.9°C (39°F)
Dewpoint: 1.1°C (34°F) [RH = 82%]
Pressure (altimeter): 29.74 inches Hg (1007.2 mb)
[Sea-level pressure: 1007.0 mb]
Winds: calm
Visibility: 10 or more miles (16+ km)
Ceiling: at least 12,000 feet AGL
Clouds: few clouds at 15000 feet AGL
Weather:
SOME DATA ABOVE MAY BE INACCURATE!!!
"$" is an indication the sensor requires maintenance

METAR text: PASI 221653Z 00000KT 10SM SCT180 04/01 A2970 RMK AO2 SLP058 T00440011 $
Conditions at: PASI (SITKA , AK, US) observed 1653 UTC 22 January 2019
Temperature: 4.4°C (40°F)
Dewpoint: 1.1°C (34°F) [RH = 79%]
Pressure (altimeter): 29.70 inches Hg (1005.8 mb)
[Sea-level pressure: 1005.8 mb]
Winds: calm
Visibility: 10 or more miles (16+ km)
Ceiling: at least 12,000 feet AGL
Clouds: scattered clouds at 18000 feet AGL
Weather:
SOME DATA ABOVE MAY BE INACCURATE!!!
"$" is an indication the sensor requires maintenance

METAR text: PASI 221553Z 32004KT 10SM CLR 06/02 A2969 RMK AO2 SLP052 T00560017 $
Conditions at: PASI (SITKA , AK, US) observed 1553 UTC 22 January 2019
Temperature: 5.6°C (42°F)
Dewpoint: 1.7°C (35°F) [RH = 76%]
Pressure (altimeter): 29.69 inches Hg (1005.5 mb)
[Sea-level pressure: 1005.2 mb]
Winds: from the NW (320 degrees) at 5 MPH (4 knots; 2.1 m/s)
Visibility: 10 or more miles (16+ km)
Ceiling: at least 12,000 feet AGL
Clouds: sky clear below 12,000 feet AGL
Weather:
SOME DATA ABOVE MAY BE INACCURATE!!!
"$" is an indication the sensor requires maintenance

METAR text: PASI 221453Z 01005KT 10SM CLR 06/01 A2967 RMK AO2 SLP045 T00560006 53028 $
Conditions at: PASI (SITKA , AK, US) observed 1453 UTC 22 January 2019
Temperature: 5.6°C (42°F)
Dewpoint: 0.6°C (33°F) [RH = 70%]
Pressure (altimeter): 29.67 inches Hg (1004.8 mb)
[Sea-level pressure: 1004.5 mb]
Winds: from the N (10 degrees) at 6 MPH (5 knots; 2.6 m/s)
Visibility: 10 or more miles (16+ km)
Ceiling: at least 12,000 feet AGL
Clouds: sky clear below 12,000 feet AGL
Weather:
SOME DATA ABOVE MAY BE INACCURATE!!!
"$" is an indication the sensor requires maintenance

METAR text: PASI 221353Z 04009KT 10SM BKN100 07/M01 A2963 RMK AO2 SLP035 T00671011 $
Conditions at: PASI (SITKA , AK, US) observed 1353 UTC 22 January 2019
Temperature: 6.7°C (44°F)
Dewpoint: -1.1°C (30°F) [RH = 57%]
Pressure (altimeter): 29.63 inches Hg (1003.5 mb)
[Sea-level pressure: 1003.5 mb]
Winds: from the NE (40 degrees) at 10 MPH (9 knots; 4.6 m/s)
Visibility: 10 or more miles (16+ km)
Ceiling: 10000 feet AGL
Clouds: broken clouds at 10000 feet AGL
Weather:
SOME DATA ABOVE MAY BE INACCURATE!!!
"$" is an indication the sensor requires maintenance

METAR text: PASI 221253Z 06008KT 10SM BKN100 07/M01 A2961 RMK AO2 SLP026 T00671011 $
Conditions at: PASI (SITKA , AK, US) observed 1253 UTC 22 January 2019
Temperature: 6.7°C (44°F)
Dewpoint: -1.1°C (30°F) [RH = 57%]
Pressure (altimeter): 29.61 inches Hg (1002.8 mb)
[Sea-level pressure: 1002.6 mb]
Winds: from the ENE (60 degrees) at 9 MPH (8 knots; 4.1 m/s)
Visibility: 10 or more miles (16+ km)
Ceiling: 10000 feet AGL
Clouds: broken clouds at 10000 feet AGL
Weather:
SOME DATA ABOVE MAY BE INACCURATE!!!
"$" is an indication the sensor requires maintenance

METAR text: PASI 221153Z 08010KT 10SM BKN100 07/M01 A2958 RMK AO2 SLP017 70022 T00671006 10078 20061 51027 $
Conditions at: PASI (SITKA , AK, US) observed 1153 UTC 22 January 2019
Temperature: 6.7°C (44°F)
Dewpoint: -0.6°C (31°F) [RH = 60%]
Pressure (altimeter): 29.58 inches Hg (1001.8 mb)
[Sea-level pressure: 1001.7 mb]
Winds: from the E (80 degrees) at 12 MPH (10 knots; 5.1 m/s)
Visibility: 10 or more miles (16+ km)
Ceiling: 10000 feet AGL
Clouds: broken clouds at 10000 feet AGL
Weather:
SOME DATA ABOVE MAY BE INACCURATE!!!
"$" is an indication the sensor requires maintenance

METAR text: PASI 221053Z 10SM BKN100 07/M01 A2956 RMK AO2 SLP009 T00721011 $
Conditions at: PASI (SITKA , AK, US) observed 1053 UTC 22 January 2019
Temperature: 7.2°C (45°F)
Dewpoint: -1.1°C (30°F) [RH = 56%]
Pressure (altimeter): 29.56 inches Hg (1001.1 mb)
[Sea-level pressure: 1000.9 mb]
Winds: missing
Visibility: 10 or more miles (16+ km)
Ceiling: 10000 feet AGL
Clouds: broken clouds at 10000 feet AGL
Weather:
SOME DATA ABOVE MAY BE INACCURATE!!!
"$" is an indication the sensor requires maintenance

METAR text: PASI 220953Z 12013G21KT 10SM OVC070 07/00 A2953 RMK AO2 SLP999 T00720000 $
Conditions at: PASI (SITKA , AK, US) observed 0953 UTC 22 January 2019
Temperature: 7.2°C (45°F)
Dewpoint: 0.0°C (32°F) [RH = 60%]
Pressure (altimeter): 29.53 inches Hg (1000.1 mb)
[Sea-level pressure:  999.9 mb]
Winds: from the ESE (120 degrees) at 15 MPH (13 knots; 6.7 m/s)
gusting to 24 MPH (21 knots; 10.8 m/s)
Visibility: 10 or more miles (16+ km)
Ceiling: 7000 feet AGL
Clouds: overcast cloud deck at 7000 feet AGL
Weather:
SOME DATA ABOVE MAY BE INACCURATE!!!
"$" is an indication the sensor requires maintenance

METAR text: PASI 220853Z 09015G22KT 10SM OVC070 07/00 A2950 RMK AO2 SLP990 T00670000 400720044 53001 $
Conditions at: PASI (SITKA , AK, US) observed 0853 UTC 22 January 2019
Temperature: 6.7°C (44°F)
Dewpoint: 0.0°C (32°F) [RH = 62%]
Pressure (altimeter): 29.50 inches Hg (999.1 mb)
[Sea-level pressure:  999.0 mb]
Winds: from the E (90 degrees) at 17 MPH (15 knots; 7.7 m/s)
gusting to 25 MPH (22 knots; 11.3 m/s)
Visibility: 10 or more miles (16+ km)
Ceiling: 7000 feet AGL
Clouds: overcast cloud deck at 7000 feet AGL
Weather:
SOME DATA ABOVE MAY BE INACCURATE!!!
"$" is an indication the sensor requires maintenance

METAR text: PASI 220753Z 08008G21KT 10SM OVC070 07/00 A2948 RMK AO2 SLP981 T00670000 $
Conditions at: PASI (SITKA , AK, US) observed 0753 UTC 22 January 2019
Temperature: 6.7°C (44°F)
Dewpoint: 0.0°C (32°F) [RH = 62%]
Pressure (altimeter): 29.48 inches Hg (998.4 mb)
[Sea-level pressure:  998.1 mb]
Winds: from the E (80 degrees) at 9 MPH (8 knots; 4.1 m/s)
gusting to 24 MPH (21 knots; 10.8 m/s)
Visibility: 10 or more miles (16+ km)
Ceiling: 7000 feet AGL
Clouds: overcast cloud deck at 7000 feet AGL
Weather:
SOME DATA ABOVE MAY BE INACCURATE!!!
"$" is an indication the sensor requires maintenance

METAR text: PASI 220653Z 09011G22KT 10SM OVC060 07/00 A2949 RMK AO2 SLP987 T00670000 $
Conditions at: PASI (SITKA , AK, US) observed 0653 UTC 22 January 2019
Temperature: 6.7°C (44°F)
Dewpoint: 0.0°C (32°F) [RH = 62%]
Pressure (altimeter): 29.49 inches Hg (998.7 mb)
[Sea-level pressure:  998.7 mb]
Winds: from the E (90 degrees) at 13 MPH (11 knots; 5.7 m/s)
gusting to 25 MPH (22 knots; 11.3 m/s)
Visibility: 10 or more miles (16+ km)
Ceiling: 6000 feet AGL
Clouds: overcast cloud deck at 6000 feet AGL
Weather:
SOME DATA ABOVE MAY BE INACCURATE!!!
"$" is an indication the sensor requires maintenance

METAR text: PASI 220553Z 10011G17KT 10SM BKN070 OVC080 07/01 A2950 RMK AO2 SLP989 60001 T00670006 10067 20050 56037 $
Conditions at: PASI (SITKA , AK, US) observed 0553 UTC 22 January 2019
Temperature: 6.7°C (44°F)
Dewpoint: 0.6°C (33°F) [RH = 65%]
Pressure (altimeter): 29.50 inches Hg (999.1 mb)
[Sea-level pressure:  998.9 mb]
Winds: from the E (100 degrees) at 13 MPH (11 knots; 5.7 m/s)
gusting to 20 MPH (17 knots; 8.7 m/s)
Visibility: 10 or more miles (16+ km)
Ceiling: 7000 feet AGL
Clouds: broken clouds at 7000 feet AGL
overcast cloud deck at 8000 feet AGL
Weather:
SOME DATA ABOVE MAY BE INACCURATE!!!
"$" is an indication the sensor requires maintenance

METAR text: PASI 220453Z 13009KT 10SM FEW025 OVC080 07/01 A2951 RMK AO2 SLP994 T00670011 $
Conditions at: PASI (SITKA , AK, US) observed 0453 UTC 22 January 2019
Temperature: 6.7°C (44°F)
Dewpoint: 1.1°C (34°F) [RH = 67%]
Pressure (altimeter): 29.51 inches Hg (999.4 mb)
[Sea-level pressure:  999.4 mb]
Winds: from the SE (130 degrees) at 10 MPH (9 knots; 4.6 m/s)
Visibility: 10 or more miles (16+ km)
Ceiling: 8000 feet AGL
Clouds: few clouds at 2500 feet AGL
overcast cloud deck at 8000 feet AGL
Weather:
SOME DATA ABOVE MAY BE INACCURATE!!!
"$" is an indication the sensor requires maintenance

Forecast for: PASI (SITKA , AK, US)
Text: PASI 231123Z 2312/2412 34004KT P6SM BKN040
Forecast period: 1200 UTC 23 January 2019 to 0300 UTC 24 January 2019
Forecast type: FROM: standard forecast or significant change
Winds: from the NNW (340 degrees) at 5 MPH (4 knots; 2.1 m/s)
Visibility: 6 or more miles 10+ km)
Ceiling: 4000 feet AGL
Clouds: broken clouds at 4000 feet AGL
Weather: no significant weather forecast for this period
Text: FM240300 13007KT P6SM -RA OVC025
Forecast period: 0300 to 1200 UTC 24 January 2019
Forecast type: FROM: standard forecast or significant change
Winds: from the SE (130 degrees) at 8 MPH (7 knots; 3.6 m/s)
Visibility: 6 or more miles 10+ km)
Ceiling: 2500 feet AGL
Clouds: overcast cloud deck at 2500 feet AGL
Weather: -RA  (light rain)